Time;durP1;ratioP1;P1;durP2;ratioP2;P2;SDS_P1;SDS_P2;PMS_P1;PMS_P2;Temp;Humidity;BMP_temperature;BMP_pressure;BME280_temperature;BME280_humidity;BME280_pressure;Samples;Min_cycle;Max_cycle;Signal;HPM_P1;HPM_P2
2023/07/28 00:02:35;;;;;;;5.28;3.22;;;14.90;99.90;;;;;;4942777;29;20130;-65
2023/07/28 00:05:07;;;;;;;4.60;3.13;;;14.90;99.90;;;;;;4940098;29;20138;-64
2023/07/28 00:07:39;;;;;;;3.72;3.17;;;14.90;99.90;;;;;;4948963;29;20051;-65
2023/07/28 00:10:11;;;;;;;4.88;4.07;;;14.90;99.90;;;;;;4952162;29;20043;-65
2023/07/28 00:12:43;;;;;;;4.70;3.45;;;15.00;99.90;;;;;;4946836;29;20396;-65
2023/07/28 00:15:14;;;;;;;4.72;3.45;;;15.20;99.90;;;;;;4938710;29;20047;-65
2023/07/28 00:17:46;;;;;;;6.32;3.83;;;15.30;99.90;;;;;;4947047;29;20050;-65
2023/07/28 00:20:13;;;;;;;5.15;3.80;;;15.40;99.90;;;;;;4944698;29;20507;-65
2023/07/28 00:22:45;;;;;;;5.70;3.47;;;15.50;99.90;;;;;;4946796;29;20043;-65
2023/07/28 00:25:17;;;;;;;3.97;3.00;;;15.60;99.90;;;;;;4944615;29;20043;-65
2023/07/28 00:27:48;;;;;;;4.70;3.45;;;15.70;99.90;;;;;;4938045;29;20130;-65
2023/07/28 00:30:20;;;;;;;4.32;3.72;;;15.70;99.90;;;;;;4934748;29;20063;-65
2023/07/28 00:32:52;;;;;;;4.97;4.20;;;15.70;99.90;;;;;;4931012;29;20057;-65
2023/07/28 00:35:18;;;;;;;7.38;3.83;;;15.60;99.90;;;;;;4950465;29;20039;-65
2023/07/28 00:37:52;;;;;;;5.57;4.47;;;15.50;99.90;;;;;;4948534;29;20127;-65
2023/07/28 00:40:24;;;;;;;5.88;3.13;;;15.40;99.90;;;;;;4941892;29;20050;-65
2023/07/28 00:42:55;;;;;;;5.22;3.45;;;15.30;99.90;;;;;;4941979;29;20063;-65
2023/07/28 00:45:29;;;;;;;4.30;3.40;;;15.30;99.90;;;;;;4943646;29;20055;-65
2023/07/28 00:48:02;;;;;;;7.03;3.33;;;15.30;99.90;;;;;;4939686;29;20047;-65
2023/07/28 00:50:34;;;;;;;7.05;3.17;;;15.40;99.90;;;;;;4920507;29;20043;-65
2023/07/28 00:53:05;;;;;;;4.65;2.90;;;15.50;99.90;;;;;;4948015;29;20526;-65
2023/07/28 00:55:38;;;;;;;5.35;3.20;;;15.60;99.90;;;;;;4934858;29;20043;-65
2023/07/28 00:58:10;;;;;;;6.05;3.53;;;15.60;99.90;;;;;;4919645;29;20059;-65
2023/07/28 01:00:42;;;;;;;4.68;3.35;;;15.60;99.90;;;;;;4924206;29;20067;-65
2023/07/28 01:03:09;;;;;;;3.92;3.35;;;15.60;99.90;;;;;;4941904;29;20046;-65
2023/07/28 01:05:43;;;;;;;6.05;3.28;;;15.70;99.90;;;;;;4940957;29;20059;-65
2023/07/28 01:08:34;;;;;;;5.20;3.00;;;15.70;99.90;;;;;;4923806;29;20063;-65
2023/07/28 01:11:05;;;;;;;5.20;3.22;;;15.80;99.90;;;;;;4937263;29;20061;-65
2023/07/28 01:13:37;;;;;;;5.93;2.90;;;15.80;99.90;;;;;;4934575;29;20055;-65
2023/07/28 01:16:09;;;;;;;3.70;2.90;;;15.70;99.90;;;;;;4932449;29;20067;-65
2023/07/28 01:18:41;;;;;;;4.40;3.03;;;15.70;99.90;;;;;;4916911;29;20044;-65
2023/07/28 01:21:20;;;;;;;4.20;2.80;;;15.70;99.90;;;;;;4920943;29;20051;-65
2023/07/28 01:24:05;;;;;;;5.72;3.22;;;15.70;99.90;;;;;;4929409;29;20039;-65
2023/07/28 01:26:38;;;;;;;3.90;3.33;;;15.70;99.90;;;;;;4942575;29;20105;-65
2023/07/28 01:29:12;;;;;;;4.55;3.40;;;15.80;99.90;;;;;;4941729;29;20131;-65
2023/07/28 01:31:47;;;;;;;4.78;3.40;;;15.80;99.90;;;;;;4938390;29;20043;-65
2023/07/28 01:34:18;;;;;;;7.65;4.97;;;15.80;99.90;;;;;;4942566;29;20499;-65
2023/07/28 01:36:50;;;;;;;4.40;4.00;;;15.70;99.90;;;;;;4923274;29;20040;-64
2023/07/28 01:39:22;;;;;;;4.20;3.80;;;15.60;99.90;;;;;;4946570;29;20043;-65
2023/07/28 01:41:49;;;;;;;7.22;4.45;;;15.50;99.90;;;;;;4933394;29;20044;-65
2023/07/28 01:44:21;;;;;;;5.25;3.92;;;15.40;99.90;;;;;;4935425;29;20515;-65
2023/07/28 01:46:52;;;;;;;4.93;3.45;;;15.30;99.90;;;;;;4938724;29;20047;-65
2023/07/28 01:49:19;;;;;;;4.70;3.97;;;15.20;99.90;;;;;;4939477;29;20054;-65
2023/07/28 01:51:51;;;;;;;6.07;3.78;;;15.30;99.90;;;;;;4940299;29;20043;-65
2023/07/28 01:54:23;;;;;;;6.35;4.40;;;15.30;99.90;;;;;;4939246;29;20051;-65
2023/07/28 01:56:50;;;;;;;6.72;4.43;;;15.30;99.90;;;;;;4935889;29;20036;-65
2023/07/28 01:59:21;;;;;;;5.82;4.53;;;15.30;99.90;;;;;;4939350;29;20046;-65
2023/07/28 02:01:54;;;;;;;4.65;4.22;;;15.20;99.90;;;;;;4950134;29;20042;-65
2023/07/28 02:04:25;;;;;;;4.18;3.78;;;15.10;99.90;;;;;;4937797;29;20051;-65
2023/07/28 02:06:57;;;;;;;4.47;3.58;;;15.10;99.90;;;;;;4923239;29;20043;-65
2023/07/28 02:09:29;;;;;;;5.22;4.03;;;15.00;99.90;;;;;;4938705;29;20035;-65
2023/07/28 02:12:01;;;;;;;4.90;4.22;;;15.00;99.90;;;;;;4941770;29;20151;-65
2023/07/28 02:14:33;;;;;;;5.82;3.55;;;14.90;99.90;;;;;;4939762;29;20043;-64
2023/07/28 02:17:05;;;;;;;5.68;4.30;;;14.90;99.90;;;;;;4942576;29;20130;-65
2023/07/28 02:19:37;;;;;;;4.53;3.92;;;14.90;99.90;;;;;;4947274;29;20051;-65
2023/07/28 02:22:04;;;;;;;4.63;3.80;;;14.80;99.90;;;;;;4949371;29;20576;-65
2023/07/28 02:24:36;;;;;;;6.15;3.80;;;14.80;99.90;;;;;;4941185;29;20063;-64
2023/07/28 02:27:08;;;;;;;5.82;3.88;;;14.80;99.90;;;;;;4933236;29;20055;-65
2023/07/28 02:29:35;;;;;;;4.35;3.58;;;14.80;99.90;;;;;;4937203;29;20122;-65
2023/07/28 02:32:08;;;;;;;5.78;3.50;;;14.90;99.90;;;;;;4940873;29;20062;-65
2023/07/28 02:34:39;;;;;;;4.28;3.38;;;15.00;99.90;;;;;;4944900;29;20047;-65
2023/07/28 02:37:11;;;;;;;4.20;2.80;;;15.10;99.90;;;;;;4928928;29;20039;-65
2023/07/28 02:39:43;;;;;;;5.15;3.03;;;15.30;99.90;;;;;;4948737;29;20058;-65
2023/07/28 02:42:15;;;;;;;3.60;2.80;;;15.40;99.90;;;;;;4938537;29;20048;-65
2023/07/28 02:44:42;;;;;;;5.07;3.05;;;15.40;99.90;;;;;;4937432;29;20094;-65
2023/07/28 02:47:09;;;;;;;7.65;3.72;;;15.50;99.90;;;;;;4934935;29;20043;-65
2023/07/28 02:49:43;;;;;;;6.75;4.60;;;15.40;99.90;;;;;;4937736;29;20058;-65
2023/07/28 02:52:15;;;;;;;3.92;3.30;;;15.40;99.90;;;;;;4939983;29;20056;-65
2023/07/28 02:54:47;;;;;;;4.18;3.33;;;15.40;99.90;;;;;;4930907;29;20058;-65
2023/07/28 02:57:19;;;;;;;4.35;2.72;;;15.40;99.90;;;;;;4942632;29;20050;-65
2023/07/28 02:59:51;;;;;;;4.28;3.13;;;15.40;99.90;;;;;;4935354;29;20048;-65
2023/07/28 03:02:22;;;;;;;3.88;3.15;;;15.40;99.90;;;;;;4929273;29;20050;-65
2023/07/28 03:04:57;;;;;;;4.88;3.00;;;15.40;99.90;;;;;;4938029;29;20060;-65
2023/07/28 03:07:47;;;;;;;4.18;3.10;;;15.40;99.90;;;;;;4948650;29;20050;-65
2023/07/28 03:10:19;;;;;;;6.78;3.78;;;15.40;99.90;;;;;;4936635;29;20057;-65
2023/07/28 03:12:51;;;;;;;4.45;3.28;;;15.40;99.90;;;;;;4950238;29;20051;-65
2023/07/28 03:15:23;;;;;;;3.53;3.08;;;15.40;99.90;;;;;;4945132;29;20121;-65
2023/07/28 03:17:54;;;;;;;4.65;3.30;;;15.40;99.90;;;;;;4910130;29;20138;-65
2023/07/28 03:20:26;;;;;;;5.53;3.22;;;15.40;99.90;;;;;;4927765;29;20147;-65
2023/07/28 03:22:59;;;;;;;4.78;3.08;;;15.40;99.90;;;;;;4945442;29;20047;-65
2023/07/28 03:25:30;;;;;;;5.15;3.38;;;15.40;99.90;;;;;;4939709;29;20047;-64
2023/07/28 03:28:03;;;;;;;3.42;3.10;;;15.40;99.90;;;;;;4921910;29;20470;-64
2023/07/28 03:30:34;;;;;;;3.75;2.78;;;15.40;99.90;;;;;;4932490;29;20047;-65
2023/07/28 03:33:07;;;;;;;5.78;3.08;;;15.50;99.90;;;;;;4948638;29;20489;-65
2023/07/28 03:35:39;;;;;;;4.43;2.72;;;15.50;99.90;;;;;;4936769;29;20138;-64
2023/07/28 03:38:12;;;;;;;4.75;3.20;;;15.50;99.90;;;;;;4939036;29;20047;-65
2023/07/28 03:40:43;;;;;;;5.32;3.80;;;15.50;99.90;;;;;;4942458;29;20082;-65
2023/07/28 03:43:16;;;;;;;4.07;3.55;;;15.50;99.90;;;;;;4943546;29;20110;-65
2023/07/28 03:45:48;;;;;;;6.05;3.60;;;15.50;99.90;;;;;;4941229;29;20039;-65
2023/07/28 03:48:19;;;;;;;7.18;4.68;;;15.50;99.90;;;;;;4947592;29;20047;-65
2023/07/28 03:50:51;;;;;;;6.45;4.32;;;15.50;99.90;;;;;;4933888;29;20044;-65
2023/07/28 03:53:23;;;;;;;7.45;4.18;;;15.30;99.90;;;;;;4929756;29;20051;-65
2023/07/28 03:55:57;;;;;;;6.32;4.65;;;15.30;99.90;;;;;;4935474;29;20079;-65
2023/07/28 03:58:29;;;;;;;5.43;4.35;;;15.20;99.90;;;;;;4936211;29;20058;-64
2023/07/28 04:01:01;;;;;;;5.38;4.88;;;15.10;99.90;;;;;;4931389;29;20098;-65
2023/07/28 04:03:33;;;;;;;6.15;4.32;;;15.10;99.90;;;;;;4941144;29;20047;-65
2023/07/28 04:06:09;;;;;;;5.00;4.30;;;15.10;99.90;;;;;;4926474;29;20059;-65
2023/07/28 04:08:41;;;;;;;6.43;4.50;;;15.00;99.90;;;;;;4925393;29;20058;-65
2023/07/28 04:11:13;;;;;;;5.18;4.38;;;15.00;99.90;;;;;;4938399;29;20083;-65
2023/07/28 04:13:45;;;;;;;6.72;4.50;;;14.90;99.90;;;;;;4947370;29;20051;-64
2023/07/28 04:16:17;;;;;;;5.78;4.57;;;14.90;99.90;;;;;;4935136;29;20051;-65
2023/07/28 04:18:49;;;;;;;7.63;4.80;;;14.90;99.90;;;;;;4934814;29;20130;-65
2023/07/28 04:21:21;;;;;;;5.32;3.95;;;14.90;99.90;;;;;;4936234;29;20578;-65
2023/07/28 04:23:53;;;;;;;8.70;4.85;;;14.90;99.90;;;;;;4930485;29;20114;-66
2023/07/28 04:26:25;;;;;;;6.20;4.63;;;14.90;99.90;;;;;;4928202;29;20067;-65
2023/07/28 04:29:01;;;;;;;7.88;4.93;;;15.00;99.90;;;;;;4942120;29;20050;-65
2023/07/28 04:31:32;;;;;;;4.97;3.40;;;15.00;99.90;;;;;;4944462;29;20058;-65
2023/07/28 04:34:08;;;;;;;3.53;3.13;;;15.20;99.90;;;;;;4921653;29;20098;-65
2023/07/28 04:37:04;;;;;;;4.55;2.92;;;15.50;99.90;;;;;;4941972;29;20059;-65
2023/07/28 04:39:54;;;;;;;3.03;2.67;;;16.00;99.90;;;;;;4933671;29;20058;-65
2023/07/28 04:42:32;;;;;;;3.92;3.33;;;16.30;99.90;;;;;;4935377;29;20067;-65
2023/07/28 04:45:06;;;;;;;4.65;3.22;;;16.50;99.90;;;;;;4921180;29;20067;-65
2023/07/28 04:47:37;;;;;;;3.40;3.10;;;16.60;99.90;;;;;;4945235;29;20050;-65
2023/07/28 04:50:10;;;;;;;3.83;3.15;;;16.70;99.90;;;;;;4941870;29;20040;-65
2023/07/28 04:53:10;;;;;;;7.72;3.53;;;16.70;99.90;;;;;;4944042;29;20126;-65
2023/07/28 04:56:05;;;;;;;3.67;3.13;;;16.90;99.90;;;;;;4942397;29;20060;-65
2023/07/28 04:58:37;;;;;;;4.32;2.72;;;16.90;99.90;;;;;;4935384;29;20047;-65
2023/07/28 05:01:05;;;;;;;3.60;2.90;;;16.90;99.90;;;;;;4917403;29;20039;-65
2023/07/28 05:03:32;;;;;;;3.15;2.85;;;17.00;99.90;;;;;;4933815;29;20046;-65
2023/07/28 05:06:18;;;;;;;5.10;3.15;;;17.00;99.90;;;;;;4932109;29;20474;-65
2023/07/28 05:08:50;;;;;;;3.55;2.75;;;17.10;99.90;;;;;;4933769;29;20526;-65
2023/07/28 05:11:31;;;;;;;3.65;3.13;;;17.20;99.90;;;;;;4924414;29;20098;-65
2023/07/28 05:14:05;;;;;;;3.83;2.60;;;17.20;99.90;;;;;;4926277;29;20507;-65
2023/07/28 05:16:37;;;;;;;5.00;3.40;;;17.40;99.90;;;;;;4944195;29;20063;-65
2023/07/28 05:19:09;;;;;;;5.85;2.83;;;17.40;99.90;;;;;;4943192;29;20044;-65
2023/07/28 05:22:19;;;;;;;6.65;3.10;;;17.50;99.90;;;;;;4926246;29;20047;-65
2023/07/28 05:24:53;;;;;;;4.20;2.85;;;17.70;99.90;;;;;;4950580;29;20110;-65
2023/07/28 05:27:29;;;;;;;8.23;3.10;;;17.80;99.90;;;;;;4932582;29;20058;-65
2023/07/28 05:29:56;;;;;;;5.90;2.67;;;17.90;99.90;;;;;;4946286;29;20126;-65
2023/07/28 05:32:28;;;;;;;5.45;3.35;;;18.10;99.90;;;;;;4928369;29;20051;-65
2023/07/28 05:35:20;;;;;;;4.80;3.05;;;18.10;99.90;;;;;;4934427;29;20055;-65
2023/07/28 05:37:47;;;;;;;3.20;2.90;;;18.10;99.90;;;;;;4939543;29;20043;-65
2023/07/28 05:40:19;;;;;;;3.28;2.97;;;18.00;99.90;;;;;;4929908;29;20054;-65
2023/07/28 05:42:51;;;;;;;5.03;3.10;;;18.00;99.90;;;;;;4920366;29;20438;-65
2023/07/28 05:45:23;;;;;;;5.00;2.80;;;18.00;99.90;;;;;;4934902;29;20051;-65
2023/07/28 05:47:49;;;;;;;3.88;2.65;;;18.00;99.90;;;;;;4950264;29;20051;-65
2023/07/28 05:50:21;;;;;;;3.80;3.00;;;18.00;99.90;;;;;;4945490;29;20063;-65
2023/07/28 05:52:53;;;;;;;4.43;2.83;;;18.10;99.90;;;;;;4945979;29;20102;-65
2023/07/28 05:55:25;;;;;;;4.20;2.55;;;18.20;99.90;;;;;;4939054;29;20047;-64
2023/07/28 05:57:57;;;;;;;6.75;3.20;;;18.30;99.90;;;;;;4941351;29;20046;-65
2023/07/28 06:00:29;;;;;;;3.88;2.53;;;18.20;99.90;;;;;;4939300;29;20035;-65
2023/07/28 06:03:01;;;;;;;4.47;3.03;;;18.20;99.90;;;;;;4935990;29;20044;-65
2023/07/28 06:05:53;;;;;;;4.25;2.90;;;18.20;99.90;;;;;;4935418;29;20058;-64
2023/07/28 06:08:24;;;;;;;3.17;2.88;;;18.20;99.90;;;;;;4922059;29;20048;-66
2023/07/28 06:10:57;;;;;;;4.18;2.90;;;18.30;99.90;;;;;;4952835;29;20052;-65
2023/07/28 06:13:28;;;;;;;3.42;2.45;;;18.30;99.90;;;;;;4935010;29;20409;-65
2023/07/28 06:16:01;;;;;;;5.25;2.60;;;18.40;99.90;;;;;;4925078;29;20481;-65
2023/07/28 06:18:33;;;;;;;4.10;2.65;;;18.50;99.90;;;;;;4947972;29;20050;-65
2023/07/28 06:21:10;;;;;;;3.88;2.78;;;18.60;99.90;;;;;;4929242;28;20039;-66
2023/07/28 06:23:42;;;;;;;4.65;2.45;;;18.70;99.90;;;;;;4935826;29;20117;-65
2023/07/28 06:26:09;;;;;;;4.68;2.88;;;18.80;99.90;;;;;;4929995;29;20126;-66
2023/07/28 06:28:42;;;;;;;4.13;3.00;;;18.90;99.90;;;;;;4944430;29;20059;-65
2023/07/28 06:31:13;;;;;;;4.13;2.88;;;19.10;99.90;;;;;;4915861;29;20074;-66
2023/07/28 06:33:47;;;;;;;3.47;3.00;;;19.10;99.90;;;;;;4941196;29;20039;-66
2023/07/28 06:36:18;;;;;;;;;;;19.10;99.90;;;;;;4935698;29;20043;-66
2023/07/28 06:38:52;;;;;;;3.78;2.63;;;19.10;99.90;;;;;;4917851;29;20393;-65
2023/07/28 06:41:24;;;;;;;;;;;19.10;99.90;;;;;;4936253;29;20044;-66
2023/07/28 06:44:00;;;;;;;4.35;3.03;;;19.10;99.90;;;;;;4930833;29;19973;-66
2023/07/28 06:46:32;;;;;;;4.03;2.63;;;19.20;99.90;;;;;;4932152;29;20114;-65
2023/07/28 06:49:04;;;;;;;3.17;2.60;;;19.20;99.90;;;;;;4943951;29;20066;-65
2023/07/28 06:51:35;;;;;;;3.50;2.42;;;19.20;99.90;;;;;;4941208;29;20134;-66
2023/07/28 06:54:12;;;;;;;4.38;2.85;;;19.20;99.90;;;;;;4935413;29;20520;-65
2023/07/28 06:56:43;;;;;;;4.72;2.40;;;19.20;99.90;;;;;;4932588;29;20046;-66
2023/07/28 06:59:16;;;;;;;5.63;3.40;;;19.20;99.90;;;;;;4930661;29;20044;-65
2023/07/28 07:01:48;;;;;;;3.20;2.90;;;19.20;99.90;;;;;;4947825;29;20082;-65
2023/07/28 07:04:20;;;;;;;5.65;2.90;;;19.20;99.90;;;;;;4941190;29;20040;-66
2023/07/28 07:06:52;;;;;;;3.92;2.55;;;19.20;99.90;;;;;;4945496;29;20137;-66
2023/07/28 07:09:24;;;;;;;4.80;3.10;;;19.20;99.90;;;;;;4931326;29;20043;-66
2023/07/28 07:11:56;;;;;;;2.80;2.50;;;19.20;99.90;;;;;;4940639;29;20048;-65
2023/07/28 07:14:23;;;;;;;2.78;2.42;;;19.20;99.90;;;;;;4935929;29;20116;-66
2023/07/28 07:16:50;;;;;;;3.20;2.70;;;19.20;99.90;;;;;;4935875;29;20578;-65
2023/07/28 07:19:22;;;;;;;2.83;2.55;;;19.30;99.90;;;;;;4936506;29;20050;-66
2023/07/28 07:21:54;;;;;;;3.47;2.63;;;19.30;99.90;;;;;;4940983;29;20503;-65
2023/07/28 07:24:27;;;;;;;6.10;3.00;;;19.40;99.90;;;;;;4931054;29;20134;-66
2023/07/28 07:26:59;;;;;;;4.00;3.17;;;19.50;99.90;;;;;;4946310;29;20836;-66
2023/07/28 07:29:30;;;;;;;3.30;2.67;;;19.70;99.90;;;;;;4947578;29;20054;-65
2023/07/28 07:32:02;;;;;;;3.95;2.80;;;19.80;99.90;;;;;;4948511;29;20055;-65
2023/07/28 07:34:29;;;;;;;4.63;2.60;;;19.90;99.90;;;;;;4947756;29;20126;-66
2023/07/28 07:37:01;;;;;;;3.00;2.45;;;19.90;99.90;;;;;;4935624;29;20063;-65
2023/07/28 07:39:34;;;;;;;6.10;2.70;;;20.00;99.90;;;;;;4951422;29;20050;-66
2023/07/28 07:42:06;;;;;;;6.55;3.33;;;20.10;99.90;;;;;;4926626;29;20050;-66
2023/07/28 07:44:37;;;;;;;3.30;2.92;;;20.20;99.90;;;;;;4939498;29;20050;-66
2023/07/28 07:47:14;;;;;;;4.22;2.50;;;20.50;99.90;;;;;;4949028;29;20066;-65
2023/07/28 07:49:44;;;;;;;3.38;2.67;;;20.60;99.90;;;;;;4945165;29;20107;-65
2023/07/28 07:52:16;;;;;;;6.07;2.90;;;20.70;99.90;;;;;;4945423;29;20047;-65
2023/07/28 07:54:48;;;;;;;5.70;2.58;;;20.80;99.90;;;;;;4946646;29;20110;-65
2023/07/28 07:57:21;;;;;;;2.97;2.67;;;21.00;99.90;;;;;;4942077;29;20044;-65
2023/07/28 07:59:53;;;;;;;3.92;2.85;;;21.10;99.90;;;;;;4937315;29;20055;-65
2023/07/28 08:02:25;;;;;;;3.17;2.80;;;21.00;99.90;;;;;;4926396;29;20040;-65
2023/07/28 08:04:57;;;;;;;3.92;2.65;;;21.00;99.90;;;;;;4938269;29;20048;-65
2023/07/28 08:07:29;;;;;;;4.38;2.70;;;20.90;99.90;;;;;;4948369;29;20059;-65
2023/07/28 08:10:02;;;;;;;5.32;3.10;;;21.00;99.90;;;;;;4945633;29;20514;-65
2023/07/28 08:12:29;;;;;;;3.55;2.65;;;21.00;99.90;;;;;;4945884;29;20728;-65
2023/07/28 08:14:55;;;;;;;3.33;2.53;;;21.10;99.90;;;;;;4943907;29;20035;-65
2023/07/28 08:17:22;;;;;;;3.10;2.65;;;21.20;99.90;;;;;;4947767;29;20082;-65
2023/07/28 08:19:54;;;;;;;4.30;3.03;;;21.20;99.90;;;;;;4940712;29;20032;-65
2023/07/28 08:22:26;;;;;;;3.15;2.47;;;21.20;99.90;;;;;;4924864;29;20035;-65
2023/07/28 08:24:58;;;;;;;3.90;2.80;;;21.20;99.90;;;;;;4942083;29;20514;-64
2023/07/28 08:27:30;;;;;;;2.60;2.40;;;21.20;99.90;;;;;;4947487;28;20120;-65
2023/07/28 08:30:03;;;;;;;2.72;2.45;;;21.10;99.90;;;;;;4942146;29;20067;-65
2023/07/28 08:32:37;;;;;;;4.75;2.58;;;21.10;99.90;;;;;;4942071;29;20047;-65
2023/07/28 08:35:04;;;;;;;6.70;2.63;;;21.20;99.90;;;;;;4946120;29;20406;-66
2023/07/28 08:37:36;;;;;;;4.00;2.20;;;21.20;99.90;;;;;;4926694;29;20134;-65
2023/07/28 08:40:10;;;;;;;3.63;2.60;;;21.20;99.90;;;;;;4933427;29;20047;-65
2023/07/28 08:42:43;;;;;;;4.47;2.42;;;21.30;99.90;;;;;;4934497;29;20043;-65
2023/07/28 08:45:15;;;;;;;2.78;2.50;;;21.40;99.90;;;;;;4942984;29;20054;-66
2023/07/28 08:47:47;;;;;;;5.35;2.70;;;21.40;99.90;;;;;;4940659;29;20057;-65
2023/07/28 08:50:14;;;;;;;2.78;2.40;;;21.50;99.90;;;;;;4942774;29;20550;-65
2023/07/28 08:52:46;;;;;;;3.50;2.50;;;21.50;99.90;;;;;;4939390;29;20058;-65
2023/07/28 08:55:13;;;;;;;3.65;2.85;;;21.70;99.90;;;;;;4944598;29;20039;-65
2023/07/28 08:57:45;;;;;;;3.08;2.40;;;21.80;99.90;;;;;;4927399;29;20292;-65
2023/07/28 09:00:17;;;;;;;5.65;2.72;;;21.90;99.90;;;;;;4942974;29;20414;-65
2023/07/28 09:02:50;;;;;;;4.18;2.53;;;21.90;99.90;;;;;;4937602;29;20058;-65
2023/07/28 09:05:23;;;;;;;4.22;2.40;;;21.90;99.90;;;;;;4925957;29;20632;-65
2023/07/28 09:07:58;;;;;;;2.95;2.50;;;21.80;99.90;;;;;;4937364;29;20499;-65
2023/07/28 09:10:25;;;;;;;4.07;2.63;;;21.80;99.90;;;;;;4937574;29;20044;-65
2023/07/28 09:12:52;;;;;;;5.22;2.40;;;21.90;99.90;;;;;;4941703;29;20142;-65
2023/07/28 09:15:18;;;;;;;3.03;2.63;;;21.90;99.90;;;;;;4941620;29;20049;-65
2023/07/28 09:17:50;;;;;;;3.03;2.40;;;21.80;99.90;;;;;;4930385;29;20051;-65
2023/07/28 09:20:22;;;;;;;3.13;2.53;;;21.90;99.90;;;;;;4941931;29;20101;-65
2023/07/28 09:22:53;;;;;;;3.33;2.50;;;21.80;99.90;;;;;;4929451;29;20122;-64
2023/07/28 09:25:21;;;;;;;3.63;2.50;;;21.80;99.90;;;;;;4930064;29;20051;-65
2023/07/28 09:27:53;;;;;;;2.83;2.40;;;21.80;99.90;;;;;;4946111;29;20043;-66
2023/07/28 09:30:26;;;;;;;3.72;2.50;;;21.80;99.90;;;;;;4936556;29;20107;-65
2023/07/28 09:32:57;;;;;;;2.30;2.10;;;21.90;99.90;;;;;;4917358;29;20055;-66
2023/07/28 09:35:29;;;;;;;3.95;2.83;;;21.90;99.90;;;;;;4937966;29;20047;-65
2023/07/28 09:38:01;;;;;;;2.53;2.08;;;22.00;99.90;;;;;;4942012;29;20066;-65
2023/07/28 09:40:33;;;;;;;3.72;2.60;;;22.00;99.90;;;;;;4939688;29;20079;-65
2023/07/28 09:43:00;;;;;;;4.85;2.53;;;22.00;99.90;;;;;;4942804;29;20055;-65
2023/07/28 09:45:34;;;;;;;3.10;2.42;;;22.10;99.90;;;;;;4939217;29;20123;-66
2023/07/28 09:48:02;;;;;;;4.68;2.30;;;22.20;99.90;;;;;;4937322;29;20056;-65
2023/07/28 09:50:37;;;;;;;2.60;2.10;;;22.20;99.90;;;;;;4936387;29;20039;-69
2023/07/28 09:53:11;;;;;;;2.95;2.05;;;22.20;99.90;;;;;;4934137;29;20052;-64
2023/07/28 09:55:42;;;;;;;3.15;2.50;;;22.20;99.90;;;;;;4934151;29;20051;-64
2023/07/28 09:58:17;;;;;;;2.63;2.08;;;22.30;99.90;;;;;;4936763;29;20048;-64
2023/07/28 10:00:50;;;;;;;2.63;2.17;;;22.30;99.90;;;;;;4943045;29;20158;-65
2023/07/28 10:03:23;;;;;;;2.90;2.47;;;22.40;99.90;;;;;;4927783;29;20058;-65
2023/07/28 10:05:55;;;;;;;2.50;2.15;;;22.60;99.90;;;;;;4942026;29;20044;-65
2023/07/28 10:08:27;;;;;;;4.65;2.33;;;22.80;99.90;;;;;;4943575;29;20537;-65
2023/07/28 10:11:01;;;;;;;3.57;2.63;;;23.10;99.90;;;;;;4947593;29;20051;-65
2023/07/28 10:13:44;;;;;;;3.38;2.50;;;23.10;99.90;;;;;;4934815;29;20050;-64
2023/07/28 10:16:16;;;;;;;4.25;2.47;;;22.90;99.90;;;;;;4919454;29;20056;-64
2023/07/28 10:18:54;;;;;;;2.38;2.05;;;22.80;99.90;;;;;;4950492;29;20541;-65
2023/07/28 10:21:29;;;;;;;5.15;2.50;;;22.70;99.90;;;;;;4937148;29;20052;-64
2023/07/28 10:24:04;;;;;;;2.85;2.47;;;22.50;99.90;;;;;;4938792;29;20039;-64
2023/07/28 10:26:41;;;;;;;4.18;2.60;;;22.50;99.90;;;;;;4941901;29;20058;-64
2023/07/28 10:29:18;;;;;;;2.60;2.05;;;22.60;99.90;;;;;;4943656;29;20043;-65
2023/07/28 10:31:57;;;;;;;3.55;2.42;;;22.60;99.90;;;;;;4939009;29;20043;-64
2023/07/28 10:34:29;;;;;;;3.30;2.53;;;22.60;99.90;;;;;;4936827;29;20065;-64
2023/07/28 10:37:01;;;;;;;3.90;2.15;;;22.70;99.90;;;;;;4943706;29;20047;-64
2023/07/28 10:39:34;;;;;;;3.20;2.47;;;23.00;99.90;;;;;;4940755;29;20043;-64
2023/07/28 10:42:11;;;;;;;2.78;2.22;;;23.40;99.90;;;;;;4934822;29;20039;-65
2023/07/28 10:44:43;;;;;;;4.35;2.50;;;23.50;99.90;;;;;;4946837;29;20414;-64
2023/07/28 10:47:15;;;;;;;2.63;2.42;;;23.60;99.90;;;;;;4945142;29;20133;-65
2023/07/28 10:49:47;;;;;;;5.73;3.20;;;23.80;99.90;;;;;;4942551;29;20054;-64
2023/07/28 10:52:16;;;;;;;3.40;2.63;;;23.90;99.90;;;;;;4946238;29;20841;-65
2023/07/28 10:54:47;;;;;;;;;;;23.80;99.90;;;;;;4941057;29;20048;-64
2023/07/28 10:57:19;;;;;;;3.15;2.47;;;23.90;99.90;;;;;;4938401;29;20021;-65
2023/07/28 10:59:51;;;;;;;2.78;2.47;;;23.90;99.90;;;;;;4936308;29;20046;-64
2023/07/28 11:02:23;;;;;;;3.50;2.30;;;23.80;99.90;;;;;;4936573;29;20050;-65
2023/07/28 11:04:55;;;;;;;2.88;2.38;;;23.90;99.90;;;;;;4948641;29;20067;-65
2023/07/28 11:07:26;;;;;;;3.00;2.70;;;23.90;99.90;;;;;;4940228;29;20062;-65
2023/07/28 11:10:01;;;;;;;4.18;2.53;;;23.70;99.90;;;;;;4943014;29;20549;-65
2023/07/28 11:12:33;;;;;;;3.67;2.80;;;23.50;99.90;;;;;;4944470;29;20113;-65
2023/07/28 11:15:10;;;;;;;4.32;3.08;;;23.30;99.90;;;;;;4943114;29;20503;-65
2023/07/28 11:17:48;;;;;;;5.18;3.28;;;23.30;99.90;;;;;;4941253;29;20047;-65
2023/07/28 11:20:22;;;;;;;6.03;2.65;;;23.30;99.90;;;;;;4948955;29;20040;-65
2023/07/28 11:23:00;;;;;;;4.07;3.00;;;23.40;99.90;;;;;;4939307;29;20035;-64
2023/07/28 11:25:33;;;;;;;4.30;2.55;;;23.50;99.90;;;;;;4947845;29;20035;-64
2023/07/28 11:28:05;;;;;;;3.10;2.80;;;23.70;99.90;;;;;;4949532;29;20035;-65
2023/07/28 11:30:38;;;;;;;5.25;2.95;;;23.80;99.90;;;;;;4951366;29;20114;-64
2023/07/28 11:33:09;;;;;;;3.80;2.88;;;23.80;99.90;;;;;;4953999;29;20043;-65
2023/07/28 11:35:44;;;;;;;3.53;2.60;;;23.80;99.90;;;;;;4952807;29;20047;-65
2023/07/28 11:38:16;;;;;;;4.90;3.13;;;23.70;99.90;;;;;;4934059;29;20055;-65
2023/07/28 11:40:44;;;;;;;3.78;3.47;;;23.70;99.90;;;;;;4932886;29;20058;-65
2023/07/28 11:43:11;;;;;;;4.13;2.95;;;23.70;99.90;;;;;;4934053;29;20052;-64
2023/07/28 11:45:43;;;;;;;2.97;2.60;;;23.70;99.90;;;;;;4935798;29;20043;-65
2023/07/28 11:48:15;;;;;;;3.15;2.55;;;23.90;99.90;;;;;;4936691;29;20040;-65
2023/07/28 11:50:48;;;;;;;2.63;2.38;;;23.90;99.90;;;;;;4945552;29;20055;-65
2023/07/28 11:53:20;;;;;;;2.95;2.60;;;23.90;99.90;;;;;;4948564;29;20070;-65
2023/07/28 11:55:52;;;;;;;4.43;2.70;;;23.90;99.90;;;;;;4947270;29;20050;-65
2023/07/28 11:58:25;;;;;;;3.47;2.95;;;23.80;99.90;;;;;;4945033;29;20054;-65
2023/07/28 12:00:57;;;;;;;2.90;2.60;;;23.80;99.90;;;;;;4946552;28;20042;-65
2023/07/28 12:03:30;;;;;;;2.97;2.58;;;23.70;99.90;;;;;;4939182;29;20126;-65
2023/07/28 12:06:06;;;;;;;4.35;2.60;;;23.80;99.90;;;;;;4937149;29;20048;-65
2023/07/28 12:08:38;;;;;;;4.90;2.60;;;23.90;99.90;;;;;;4935492;29;20127;-65
2023/07/28 12:11:14;;;;;;;5.00;2.80;;;24.00;99.90;;;;;;4948632;29;20525;-65
2023/07/28 12:13:50;;;;;;;3.33;2.80;;;24.00;99.90;;;;;;4938674;29;20053;-65
2023/07/28 12:16:47;;;;;;;3.78;2.95;;;24.10;99.90;;;;;;4940584;29;20043;-65
2023/07/28 12:19:19;;;;;;;3.30;3.00;;;24.00;99.90;;;;;;4928743;29;20040;-65
2023/07/28 12:21:51;;;;;;;3.47;2.50;;;24.00;99.90;;;;;;4944323;29;20046;-65
2023/07/28 12:24:24;;;;;;;2.97;2.50;;;24.00;99.90;;;;;;4944576;29;20050;-65
2023/07/28 12:26:55;;;;;;;3.53;2.90;;;24.00;99.90;;;;;;4937041;29;20078;-64
2023/07/28 12:29:27;;;;;;;3.13;2.33;;;23.80;99.90;;;;;;4935968;29;20400;-65
2023/07/28 12:31:59;;;;;;;2.90;2.53;;;23.70;99.90;;;;;;4945721;29;20051;-64
2023/07/28 12:34:31;;;;;;;3.22;2.65;;;23.60;99.90;;;;;;4944132;29;20478;-65
2023/07/28 12:36:59;;;;;;;3.33;2.50;;;23.50;99.90;;;;;;4914374;29;20413;-65
2023/07/28 12:39:30;;;;;;;3.45;2.80;;;23.40;99.90;;;;;;4944933;29;20046;-65
2023/07/28 12:42:02;;;;;;;5.97;3.05;;;23.20;99.90;;;;;;4943781;29;20090;-65
2023/07/28 12:44:35;;;;;;;3.88;2.45;;;23.10;99.90;;;;;;4947176;29;20047;-65
2023/07/28 12:47:07;;;;;;;8.60;3.30;;;23.10;99.90;;;;;;4935205;29;20126;-65
2023/07/28 12:49:39;;;;;;;3.07;2.77;;;23.10;99.90;;;;;;4948785;29;20043;-65
2023/07/28 12:52:08;;;;;;;2.97;2.40;;;23.20;99.90;;;;;;4946496;29;20042;-65
2023/07/28 12:54:39;;;;;;;4.75;2.40;;;23.20;99.90;;;;;;4928726;29;20039;-65
2023/07/28 12:57:10;;;;;;;4.57;2.78;;;23.30;99.90;;;;;;4933146;29;20126;-65
2023/07/28 12:59:41;;;;;;;3.35;2.85;;;23.30;99.90;;;;;;4935481;29;20050;-65
2023/07/28 13:02:13;;;;;;;4.70;2.88;;;23.30;99.90;;;;;;4950816;29;20441;-65
2023/07/28 13:04:40;;;;;;;4.05;2.80;;;23.30;99.90;;;;;;4933723;29;20773;-65
2023/07/28 13:07:12;;;;;;;3.30;2.60;;;23.30;99.90;;;;;;4936258;29;20541;-65
2023/07/28 13:09:38;;;;;;;2.92;2.63;;;23.20;99.90;;;;;;4935584;29;20488;-66
2023/07/28 13:12:06;;;;;;;3.78;2.75;;;23.20;99.90;;;;;;4946876;28;20055;-65
2023/07/28 13:14:34;;;;;;;5.15;2.95;;;23.10;99.90;;;;;;4932123;29;20051;-65
2023/07/28 13:17:06;;;;;;;4.07;2.78;;;23.00;99.90;;;;;;4944678;29;20541;-65